Time;durP1;ratioP1;P1;durP2;ratioP2;P2;SDS_P1;SDS_P2;PMS_P1;PMS_P2;Temp;Humidity;BMP_temperature;BMP_pressure;BME280_temperature;BME280_humidity;BME280_pressure;Samples;Min_cycle;Max_cycle;Signal;HPM_P1;HPM_P2
2022/06/02 00:00:46;;;;;;;3.45;1.00;;;14.20;64.70;;;;;;5061977;28;20594;-74
2022/06/02 00:03:24;;;;;;;1.50;0.70;;;14.20;64.70;;;;;;5069404;28;20036;-81
2022/06/02 00:06:15;;;;;;;1.48;0.80;;;14.20;64.80;;;;;;5074362;28;20044;-72
2022/06/02 00:08:57;;;;;;;2.13;0.82;;;14.10;64.90;;;;;;5061484;28;20051;-75
2022/06/02 00:11:46;;;;;;;2.42;1.13;;;14.10;65.00;;;;;;5068085;28;20048;-74
2022/06/02 00:14:18;;;;;;;1.45;0.60;;;14.10;65.10;;;;;;5068341;28;20502;-76
2022/06/02 00:16:57;;;;;;;0.93;0.60;;;14.10;65.20;;;;;;5069688;28;20065;-76
2022/06/02 00:19:34;;;;;;;1.73;0.70;;;14.00;65.30;;;;;;5070586;28;20044;-73
2022/06/02 00:22:09;;;;;;;1.50;0.60;;;13.90;65.30;;;;;;5050482;28;21980;-77
2022/06/02 00:24:44;;;;;;;2.28;0.75;;;13.80;65.50;;;;;;5069810;28;20032;-80
2022/06/02 00:27:20;;;;;;;1.88;0.90;;;13.80;65.60;;;;;;5073360;28;20048;-72
2022/06/02 00:30:01;;;;;;;2.22;1.20;;;13.70;65.80;;;;;;5071097;28;20485;-74
2022/06/02 00:32:38;;;;;;;1.77;0.80;;;13.60;65.80;;;;;;5061341;28;20508;-75
2022/06/02 00:35:17;;;;;;;1.35;0.60;;;13.60;65.90;;;;;;5064279;28;20562;-74
2022/06/02 00:37:51;;;;;;;1.98;0.90;;;13.60;66.00;;;;;;5079271;28;20110;-72
2022/06/02 00:40:19;;;;;;;3.03;0.88;;;13.60;66.00;;;;;;5078298;28;20044;-79
2022/06/02 00:43:20;;;;;;;1.45;0.80;;;13.50;66.10;;;;;;5066455;28;20114;-78
2022/06/02 00:45:53;;;;;;;1.95;0.80;;;13.50;66.20;;;;;;4976662;28;20083;-74
2022/06/02 00:48:28;;;;;;;3.15;1.17;;;13.40;66.40;;;;;;5054938;28;20053;-76
2022/06/02 00:51:03;;;;;;;3.72;1.30;;;13.30;66.60;;;;;;5075033;28;20561;-77
2022/06/02 00:53:42;;;;;;;3.92;0.95;;;13.30;66.70;;;;;;5076381;28;20048;-75
2022/06/02 00:59:25;;;;;;;2.63;0.90;;;13.20;67.00;;;;;;5078366;28;20052;-74
2022/06/02 01:01:53;;;;;;;2.50;0.98;;;13.20;67.00;;;;;;5067594;28;20127;-74
2022/06/02 01:04:21;;;;;;;2.85;1.15;;;13.20;66.90;;;;;;5049072;28;20059;-75
2022/06/02 01:07:09;;;;;;;2.10;0.93;;;13.20;66.90;;;;;;5072966;28;20080;-75
2022/06/02 01:10:02;;;;;;;2.08;0.93;;;13.10;67.00;;;;;;5042699;28;20064;-73
2022/06/02 01:12:55;;;;;;;0.93;0.80;;;13.10;67.20;;;;;;5066616;28;20068;-74
2022/06/02 01:15:32;;;;;;;1.45;0.80;;;13.00;67.20;;;;;;5056745;28;20139;-79
2022/06/02 01:18:11;;;;;;;1.95;1.05;;;13.00;67.40;;;;;;5081468;28;20068;-74
2022/06/02 01:20:46;;;;;;;2.05;0.93;;;12.90;67.30;;;;;;5077621;28;20110;-73
2022/06/02 01:23:51;;;;;;;2.50;1.00;;;12.90;67.50;;;;;;5081324;28;20116;-72
2022/06/02 01:26:37;;;;;;;3.13;1.00;;;12.80;67.60;;;;;;5046150;28;20084;-78
2022/06/02 01:29:26;;;;;;;2.25;0.80;;;12.70;67.70;;;;;;5074038;28;20456;-74
2022/06/02 01:32:01;;;;;;;2.33;0.98;;;12.70;67.90;;;;;;5066518;28;20126;-74
2022/06/02 01:34:45;;;;;;;1.45;0.93;;;12.70;68.00;;;;;;5055342;28;20098;-74
2022/06/02 01:37:24;;;;;;;2.88;1.23;;;12.70;68.00;;;;;;5070768;28;20044;-75
2022/06/02 01:40:14;;;;;;;1.95;1.00;;;12.70;68.00;;;;;;5070219;28;20511;-72
2022/06/02 01:42:54;;;;;;;1.50;0.82;;;12.60;67.90;;;;;;5045982;28;20516;-72
2022/06/02 01:45:35;;;;;;;2.45;1.55;;;12.60;68.10;;;;;;5071949;28;20032;-74
2022/06/02 01:48:11;;;;;;;2.85;1.15;;;12.60;68.20;;;;;;5068515;28;20047;-74
2022/06/02 01:50:48;;;;;;;1.95;1.15;;;12.50;68.10;;;;;;5064515;28;20051;-75
2022/06/02 01:53:26;;;;;;;2.00;1.08;;;12.40;68.30;;;;;;5073787;28;20039;-73
2022/06/02 01:56:11;;;;;;;3.75;1.20;;;12.50;68.20;;;;;;5079329;28;20042;-72
2022/06/02 01:58:49;;;;;;;1.65;0.95;;;12.40;68.30;;;;;;5063983;28;20051;-75
2022/06/02 02:01:25;;;;;;;1.05;0.70;;;12.40;68.50;;;;;;5071645;28;20045;-74
2022/06/02 02:04:09;;;;;;;6.78;1.20;;;12.30;68.90;;;;;;5081772;28;20042;-75
2022/06/02 02:06:44;;;;;;;2.05;0.93;;;12.30;69.10;;;;;;5080275;28;20055;-73
2022/06/02 02:09:20;;;;;;;2.50;1.05;;;12.20;69.10;;;;;;5071295;28;20093;-78
2022/06/02 02:11:51;;;;;;;1.73;0.85;;;12.20;69.40;;;;;;5079823;28;20083;-75
2022/06/02 02:14:56;;;;;;;1.58;0.88;;;12.20;69.30;;;;;;5077141;28;20042;-75
2022/06/02 02:17:48;;;;;;;1.55;0.70;;;12.20;69.30;;;;;;5055778;28;20392;-72
2022/06/02 02:20:27;;;;;;;0.82;0.70;;;12.10;69.30;;;;;;5072284;28;20062;-75
2022/06/02 02:23:02;;;;;;;1.23;0.85;;;12.10;69.20;;;;;;5071750;28;20502;-73
2022/06/02 02:25:37;;;;;;;1.23;0.80;;;12.10;69.10;;;;;;5075738;28;20056;-73
2022/06/02 02:28:12;;;;;;;1.63;0.82;;;12.10;69.00;;;;;;5076048;28;20541;-75
2022/06/02 02:30:52;;;;;;;1.75;0.95;;;12.00;69.10;;;;;;5057444;28;20052;-74
2022/06/02 02:33:32;;;;;;;1.33;0.80;;;11.90;69.20;;;;;;5077945;28;20052;-71
2022/06/02 02:36:09;;;;;;;1.35;0.93;;;11.90;69.30;;;;;;5078641;28;20059;-76
2022/06/02 02:38:45;;;;;;;1.13;0.63;;;11.80;69.50;;;;;;5077718;28;20404;-75
2022/06/02 02:41:20;;;;;;;3.60;0.77;;;11.80;69.50;;;;;;5076082;28;20529;-76
2022/06/02 02:43:55;;;;;;;2.05;0.80;;;11.80;69.60;;;;;;5077398;28;20594;-74
2022/06/02 02:46:31;;;;;;;1.38;0.77;;;11.70;69.80;;;;;;5057937;28;20056;-75
2022/06/02 02:49:05;;;;;;;1.50;0.68;;;11.70;69.90;;;;;;5057325;28;20059;-75
2022/06/02 02:51:44;;;;;;;0.90;0.70;;;11.70;70.00;;;;;;5076380;28;20147;-76
2022/06/02 02:54:17;;;;;;;1.30;0.80;;;11.70;70.20;;;;;;5076776;28;20067;-79
2022/06/02 02:56:53;;;;;;;1.80;1.00;;;11.70;70.10;;;;;;5078057;28;20044;-77
2022/06/02 02:59:29;;;;;;;2.97;0.85;;;11.70;70.40;;;;;;5044683;28;20129;-74
2022/06/02 03:02:06;;;;;;;2.05;0.90;;;11.60;70.40;;;;;;5076346;28;20055;-74
2022/06/02 03:04:43;;;;;;;1.50;0.73;;;11.70;70.40;;;;;;5079960;28;20126;-78
2022/06/02 03:07:11;;;;;;;2.78;0.90;;;11.60;70.50;;;;;;5077865;28;20056;-76
2022/06/02 03:09:43;;;;;;;1.98;1.23;;;11.60;70.60;;;;;;5073151;28;20582;-75
2022/06/02 03:12:19;;;;;;;2.70;1.40;;;11.50;70.60;;;;;;5076238;28;20086;-76
2022/06/02 03:15:11;;;;;;;2.70;1.20;;;11.50;70.60;;;;;;5078687;28;20514;-75
2022/06/02 03:17:51;;;;;;;1.92;1.10;;;11.40;70.80;;;;;;5078298;28;20381;-78
2022/06/02 03:20:22;;;;;;;2.70;1.17;;;11.40;70.80;;;;;;5079636;28;20500;-76
2022/06/02 03:23:15;;;;;;;1.90;1.20;;;11.40;70.90;;;;;;5078114;28;20063;-76
2022/06/02 03:25:48;;;;;;;2.28;1.10;;;11.40;70.90;;;;;;5078818;28;20056;-75
2022/06/02 03:28:24;;;;;;;3.67;1.30;;;11.40;70.90;;;;;;5075716;28;20518;-78
2022/06/02 03:31:00;;;;;;;2.33;0.95;;;11.40;70.80;;;;;;5079253;28;20048;-74
2022/06/02 03:33:47;;;;;;;1.38;0.80;;;11.30;70.90;;;;;;5078951;28;20040;-76
2022/06/02 03:36:26;;;;;;;2.65;1.23;;;11.30;70.90;;;;;;5069937;28;20044;-75
2022/06/02 03:39:04;;;;;;;2.22;1.08;;;11.30;70.80;;;;;;5069608;28;20484;-76
2022/06/02 03:41:52;;;;;;;3.00;1.25;;;11.20;70.90;;;;;;5066821;28;20044;-77
2022/06/02 03:44:30;;;;;;;2.72;1.35;;;11.20;71.00;;;;;;5049675;28;20512;-75
2022/06/02 03:47:19;;;;;;;2.38;1.30;;;11.20;71.00;;;;;;5074602;28;20102;-76
2022/06/02 03:49:57;;;;;;;2.40;1.15;;;11.20;70.90;;;;;;5075435;28;20059;-76
2022/06/02 03:52:38;;;;;;;1.10;0.82;;;11.10;71.00;;;;;;5057746;28;20046;-73
2022/06/02 03:55:18;;;;;;;1.80;1.00;;;11.10;71.00;;;;;;5077297;28;20036;-74
2022/06/02 03:57:49;;;;;;;;;;;11.10;71.20;;;;;;5078674;28;20529;-75
2022/06/02 04:00:19;;;;;;;;;;;11.10;71.20;;;;;;5072564;28;19924;-75
2022/06/02 04:02:52;;;;;;;2.63;1.13;;;11.10;71.30;;;;;;5079893;28;20375;-79
2022/06/02 04:05:53;;;;;;;2.90;1.20;;;11.10;71.20;;;;;;5078764;28;20470;-75
2022/06/02 04:08:50;;;;;;;1.75;1.00;;;11.20;71.10;;;;;;5077469;28;20041;-75
2022/06/02 04:14:41;;;;;;;1.30;0.88;;;11.20;70.90;;;;;;5078636;28;20032;-77
2022/06/02 04:17:17;;;;;;;1.95;0.90;;;11.20;70.80;;;;;;5044451;28;20048;-75
2022/06/02 04:22:56;;;;;;;2.25;1.23;;;11.30;70.70;;;;;;5078636;28;20069;-78
2022/06/02 04:25:39;;;;;;;2.33;1.00;;;11.40;70.20;;;;;;5077148;28;20044;-77
2022/06/02 04:28:15;;;;;;;1.85;1.20;;;11.50;70.10;;;;;;5078362;28;20067;-79
2022/06/02 04:30:51;;;;;;;2.83;1.52;;;11.50;70.10;;;;;;5078789;28;20048;-75
2022/06/02 04:33:28;;;;;;;2.35;1.20;;;11.40;70.20;;;;;;5058895;28;20051;-76
2022/06/02 04:36:06;;;;;;;2.60;1.42;;;11.40;70.30;;;;;;5059513;28;20051;-74
2022/06/02 04:38:52;;;;;;;2.17;1.13;;;11.40;70.40;;;;;;5077463;28;20047;-79
2022/06/02 04:41:26;;;;;;;2.70;1.40;;;11.40;70.60;;;;;;5078317;28;20067;-73
2022/06/02 04:44:06;;;;;;;3.45;1.65;;;11.30;70.70;;;;;;5043304;28;20049;-74
2022/06/02 04:46:51;;;;;;;2.63;1.45;;;11.40;70.90;;;;;;5063783;28;20511;-77
2022/06/02 04:49:27;;;;;;;4.43;1.65;;;11.40;70.70;;;;;;5065519;28;20080;-75
2022/06/02 04:52:03;;;;;;;3.85;1.77;;;11.40;70.60;;;;;;5045793;28;20063;-73
2022/06/02 04:54:41;;;;;;;3.58;1.70;;;11.40;70.50;;;;;;5045140;28;20528;-76
2022/06/02 04:57:17;;;;;;;2.75;1.58;;;11.50;70.70;;;;;;5058976;28;20415;-73
2022/06/02 04:59:58;;;;;;;3.25;1.75;;;11.50;70.80;;;;;;5044874;28;20168;-75
2022/06/02 05:02:36;;;;;;;3.10;1.58;;;11.50;70.50;;;;;;5041393;28;20059;-74
2022/06/02 05:05:15;;;;;;;1.77;1.08;;;11.60;70.40;;;;;;5061989;28;20571;-78
2022/06/02 05:07:59;;;;;;;3.92;1.48;;;11.60;70.40;;;;;;5063798;28;20053;-75
2022/06/02 05:10:33;;;;;;;3.22;1.17;;;11.60;70.40;;;;;;5063250;28;20599;-78
2022/06/02 05:13:05;;;;;;;2.35;1.35;;;11.60;70.50;;;;;;5062764;28;20050;-76
2022/06/02 05:15:59;;;;;;;2.38;1.27;;;11.70;70.30;;;;;;5063351;28;20167;-75
2022/06/02 05:18:51;;;;;;;2.90;1.17;;;11.70;70.50;;;;;;5064495;28;20397;-75
2022/06/02 05:21:36;;;;;;;2.28;1.23;;;11.70;70.50;;;;;;5059089;28;20132;-80
2022/06/02 05:24:36;;;;;;;3.30;1.45;;;11.70;70.60;;;;;;5064570;28;20045;-75
2022/06/02 05:27:29;;;;;;;1.80;1.10;;;11.70;70.50;;;;;;5061983;28;20041;-73
2022/06/02 05:30:21;;;;;;;2.30;1.23;;;11.80;70.80;;;;;;5064586;28;20052;-74
2022/06/02 05:33:25;;;;;;;6.35;1.40;;;11.80;70.80;;;;;;5058560;28;20055;-77
2022/06/02 05:36:10;;;;;;;2.33;1.30;;;11.80;70.80;;;;;;5056675;28;20424;-75
2022/06/02 05:39:00;;;;;;;3.25;1.58;;;11.80;70.80;;;;;;5059090;28;20044;-76
2022/06/02 05:41:39;;;;;;;2.10;1.08;;;11.90;71.00;;;;;;5063066;28;20052;-75
2022/06/02 05:44:16;;;;;;;2.03;1.10;;;12.00;71.20;;;;;;5071497;28;20049;-75
2022/06/02 05:47:00;;;;;;;1.60;1.08;;;12.00;71.00;;;;;;5069456;28;20036;-74
2022/06/02 05:49:33;;;;;;;1.80;1.05;;;12.10;71.10;;;;;;5053468;28;20091;-74
2022/06/02 05:52:10;;;;;;;2.80;1.15;;;12.10;71.40;;;;;;5070241;28;20044;-75
2022/06/02 05:54:48;;;;;;;2.55;1.33;;;12.00;71.60;;;;;;5065540;28;20037;-75
2022/06/02 05:57:34;;;;;;;2.47;1.20;;;12.00;71.60;;;;;;5073845;28;20044;-75
2022/06/02 06:00:25;;;;;;;1.67;1.00;;;12.10;71.30;;;;;;5074695;28;20032;-75
2022/06/02 06:03:28;;;;;;;2.20;1.20;;;12.10;71.30;;;;;;5069260;28;20548;-73
2022/06/02 06:06:03;;;;;;;4.88;1.52;;;12.20;71.40;;;;;;5055059;28;20049;-76
2022/06/02 06:08:42;;;;;;;2.58;1.60;;;12.20;71.60;;;;;;5078416;28;20070;-73
2022/06/02 06:11:28;;;;;;;2.28;1.20;;;12.20;71.70;;;;;;5041571;28;20402;-78
2022/06/02 06:14:11;;;;;;;1.65;1.00;;;12.20;71.90;;;;;;5075806;28;20087;-74
2022/06/02 06:16:43;;;;;;;2.35;1.35;;;12.30;71.70;;;;;;5066771;28;20166;-75
2022/06/02 06:19:34;;;;;;;7.47;1.92;;;12.30;71.80;;;;;;5069925;28;20079;-74
2022/06/02 06:22:27;;;;;;;3.78;1.38;;;12.40;71.90;;;;;;5068016;28;20129;-75
2022/06/02 06:25:07;;;;;;;2.95;1.80;;;12.50;71.90;;;;;;5067084;28;20495;-77
2022/06/02 06:27:42;;;;;;;3.97;1.70;;;12.50;71.70;;;;;;5056023;28;20088;-75
2022/06/02 06:30:17;;;;;;;2.28;1.15;;;12.60;71.60;;;;;;5069266;28;20404;-75
2022/06/02 06:32:56;;;;;;;4.45;1.40;;;12.70;71.50;;;;;;5070178;28;20047;-74
2022/06/02 06:35:38;;;;;;;2.65;1.60;;;12.80;71.30;;;;;;5067141;28;20478;-74
2022/06/02 06:38:42;;;;;;;2.83;1.65;;;12.90;70.80;;;;;;5061721;28;20543;-75
2022/06/02 06:41:23;;;;;;;2.85;1.48;;;13.10;70.90;;;;;;5066314;28;20119;-74
2022/06/02 06:44:05;;;;;;;3.45;1.52;;;13.20;70.60;;;;;;5067340;28;20045;-75
2022/06/02 06:46:41;;;;;;;4.13;1.63;;;13.40;70.20;;;;;;5070354;28;20052;-76
2022/06/02 06:49:15;;;;;;;3.97;1.60;;;13.60;69.90;;;;;;5050459;28;20121;-74
2022/06/02 06:51:54;;;;;;;3.20;1.65;;;13.70;69.80;;;;;;5070157;28;20068;-79
2022/06/02 06:54:34;;;;;;;2.33;1.30;;;13.80;69.50;;;;;;5069601;28;20037;-76
2022/06/02 06:57:07;;;;;;;3.80;1.77;;;14.10;69.30;;;;;;5069646;28;20549;-79
2022/06/02 06:59:47;;;;;;;4.03;1.70;;;14.20;69.00;;;;;;5068786;28;20044;-74
2022/06/02 07:02:28;;;;;;;3.70;1.98;;;14.30;68.70;;;;;;5069486;28;20036;-81
2022/06/02 07:05:03;;;;;;;5.30;2.22;;;14.50;68.40;;;;;;5073870;28;20041;-78
2022/06/02 07:07:40;;;;;;;4.72;2.00;;;14.70;68.20;;;;;;5074996;28;20120;-79
2022/06/02 07:10:14;;;;;;;4.88;1.92;;;14.90;68.20;;;;;;5069338;28;20036;-78
2022/06/02 07:12:50;;;;;;;4.70;1.83;;;15.10;67.80;;;;;;5069625;28;20032;-77
2022/06/02 07:15:26;;;;;;;3.30;1.60;;;15.30;67.40;;;;;;5065371;28;20031;-73
2022/06/02 07:18:14;;;;;;;3.60;1.77;;;15.40;67.40;;;;;;5067228;28;20041;-75
2022/06/02 07:20:52;;;;;;;2.90;1.55;;;15.60;66.70;;;;;;5066897;28;20538;-75
2022/06/02 07:23:34;;;;;;;5.78;2.40;;;15.80;66.30;;;;;;5066966;28;20044;-76
2022/06/02 07:26:12;;;;;;;4.32;1.30;;;16.00;65.30;;;;;;5069236;28;20035;-75
2022/06/02 07:28:54;;;;;;;3.35;1.80;;;16.20;65.20;;;;;;5066046;28;20066;-76
2022/06/02 07:31:50;;;;;;;2.78;1.50;;;16.40;63.70;;;;;;5069368;28;20075;-79
2022/06/02 07:34:34;;;;;;;3.20;1.45;;;16.60;63.20;;;;;;5059669;28;20052;-79
2022/06/02 07:37:22;;;;;;;4.43;1.77;;;16.70;63.00;;;;;;5040645;28;20541;-79
2022/06/02 07:40:20;;;;;;;3.67;1.73;;;16.80;62.90;;;;;;5075903;28;20402;-74
2022/06/02 07:43:23;;;;;;;3.92;1.80;;;17.00;61.80;;;;;;5078240;28;20040;-78
2022/06/02 07:45:58;;;;;;;2.78;1.60;;;17.10;61.40;;;;;;5033082;28;20048;-76
2022/06/02 07:48:56;;;;;;;4.00;1.50;;;17.30;60.60;;;;;;5046155;28;20040;-75
2022/06/02 07:51:29;;;;;;;5.55;2.35;;;17.50;59.50;;;;;;5069678;28;20420;-75
2022/06/02 07:54:06;;;;;;;3.33;1.80;;;17.60;58.40;;;;;;5053522;28;20131;-76
2022/06/02 07:56:47;;;;;;;3.28;1.52;;;17.70;57.50;;;;;;5071853;28;20660;-78
2022/06/02 07:59:20;;;;;;;3.25;1.20;;;17.90;57.60;;;;;;5073149;28;20502;-73
2022/06/02 08:02:08;;;;;;;3.45;1.50;;;18.00;58.30;;;;;;5062243;28;20051;-73
2022/06/02 08:04:44;;;;;;;3.33;1.45;;;18.10;58.70;;;;;;5076265;28;20041;-76
2022/06/02 08:07:21;;;;;;;2.95;1.48;;;18.20;58.20;;;;;;5070872;28;20043;-77
2022/06/02 08:10:02;;;;;;;2.72;1.40;;;18.30;58.00;;;;;;5073122;28;20079;-74
2022/06/02 08:12:35;;;;;;;3.05;1.30;;;18.50;57.40;;;;;;5055177;28;20072;-72
2022/06/02 08:15:18;;;;;;;3.42;1.70;;;18.60;56.70;;;;;;5068834;28;20123;-78
2022/06/02 08:17:51;;;;;;;3.80;1.48;;;18.70;57.20;;;;;;5069579;28;20166;-76
2022/06/02 08:20:37;;;;;;;2.53;1.10;;;18.80;56.00;;;;;;5055348;28;20051;-74
2022/06/02 08:23:15;;;;;;;4.03;1.20;;;18.80;55.70;;;;;;5070524;28;20144;-80
2022/06/02 08:25:52;;;;;;;2.17;1.10;;;19.00;54.30;;;;;;5041616;28;20144;-75
2022/06/02 08:28:41;;;;;;;3.17;1.40;;;19.10;55.70;;;;;;5052993;28;20054;-74
2022/06/02 08:31:19;;;;;;;3.10;1.33;;;19.20;54.60;;;;;;5069975;28;20525;-79
2022/06/02 08:33:53;;;;;;;3.05;0.85;;;19.20;54.20;;;;;;5069547;28;20068;-78
2022/06/02 08:36:27;;;;;;;3.20;1.20;;;19.20;55.20;;;;;;5070624;28;20044;-75
2022/06/02 08:39:11;;;;;;;2.10;1.00;;;19.20;54.40;;;;;;5064970;28;20518;-76
2022/06/02 08:42:17;;;;;;;3.15;0.98;;;19.30;55.10;;;;;;5079633;28;20121;-75
2022/06/02 08:45:23;;;;;;;1.60;1.05;;;19.40;53.20;;;;;;5072163;28;20052;-76
2022/06/02 08:48:26;;;;;;;3.58;1.10;;;19.50;53.60;;;;;;4986538;28;20051;-75
2022/06/02 08:51:15;;;;;;;2.33;1.23;;;19.60;52.70;;;;;;4992483;28;20104;-75
2022/06/02 08:54:28;;;;;;;3.00;1.30;;;19.80;52.80;;;;;;5057967;28;20048;-74
2022/06/02 08:57:30;;;;;;;2.03;1.02;;;19.90;51.10;;;;;;5069448;28;20040;-77
2022/06/02 09:00:19;;;;;;;1.98;0.85;;;20.10;50.80;;;;;;5037058;28;20044;-74
2022/06/02 09:03:18;;;;;;;2.95;1.30;;;20.20;52.20;;;;;;5047196;28;20048;-77
2022/06/02 09:06:12;;;;;;;4.38;1.73;;;20.20;51.30;;;;;;5065696;28;20128;-75
2022/06/02 09:09:00;;;;;;;2.13;1.05;;;20.40;49.60;;;;;;5049615;28;20148;-76
2022/06/02 09:11:44;;;;;;;1.92;1.08;;;20.40;50.00;;;;;;5068287;28;20055;-75
2022/06/02 09:14:44;;;;;;;3.28;1.20;;;20.50;50.80;;;;;;5067563;28;20032;-73
2022/06/02 09:17:30;;;;;;;1.27;0.80;;;20.60;49.70;;;;;;5047589;28;20051;-76
2022/06/02 09:20:13;;;;;;;1.15;0.82;;;20.60;50.00;;;;;;5040319;28;20062;-77
2022/06/02 09:22:54;;;;;;;2.72;1.02;;;20.70;50.40;;;;;;5052282;28;20623;-75
2022/06/02 09:25:56;;;;;;;1.52;0.90;;;20.80;49.10;;;;;;5064878;28;20047;-74
2022/06/02 09:28:59;;;;;;;2.63;0.98;;;20.90;50.10;;;;;;5069786;28;20526;-74
2022/06/02 09:31:42;;;;;;;3.42;1.23;;;21.00;50.40;;;;;;5067338;28;20499;-79
2022/06/02 09:34:41;;;;;;;3.75;1.75;;;21.00;49.20;;;;;;5069401;28;20365;-76
2022/06/02 09:37:44;;;;;;;4.95;1.50;;;21.10;48.80;;;;;;5071160;28;20131;-80
2022/06/02 09:40:35;;;;;;;2.58;1.00;;;21.10;47.60;;;;;;5039942;28;20094;-73
2022/06/02 09:43:36;;;;;;;3.83;1.30;;;21.10;47.20;;;;;;5069653;28;20075;-76
2022/06/02 09:46:27;;;;;;;3.45;1.38;;;21.10;46.90;;;;;;5069065;28;20037;-77
2022/06/02 09:49:13;;;;;;;2.08;1.17;;;21.20;46.40;;;;;;5067823;28;20052;-74
2022/06/02 09:51:55;;;;;;;2.28;1.30;;;21.30;46.90;;;;;;5057016;28;20393;-75
2022/06/02 09:54:50;;;;;;;2.50;1.05;;;21.30;46.90;;;;;;5056135;28;20712;-73
2022/06/02 09:57:56;;;;;;;2.65;1.40;;;21.30;47.50;;;;;;5067720;28;20036;-78
2022/06/02 10:00:37;;;;;;;1.52;0.80;;;21.60;45.80;;;;;;5066409;28;20387;-79
2022/06/02 10:03:28;;;;;;;4.03;1.00;;;21.60;45.90;;;;;;5052740;28;20055;-77
2022/06/02 10:06:11;;;;;;;2.20;1.00;;;21.60;45.10;;;;;;5070147;28;20092;-76
2022/06/02 10:08:50;;;;;;;2.75;1.00;;;21.60;45.80;;;;;;5053558;28;20048;-77
2022/06/02 10:11:29;;;;;;;1.85;0.93;;;21.60;45.90;;;;;;5053060;28;20133;-75
2022/06/02 10:14:43;;;;;;;1.88;0.80;;;21.70;44.40;;;;;;5051365;28;20135;-75
2022/06/02 10:17:49;;;;;;;1.65;0.88;;;21.70;44.70;;;;;;5068556;28;20037;-76
2022/06/02 10:20:45;;;;;;;2.95;0.57;;;21.70;44.70;;;;;;5064656;28;20075;-77
2022/06/02 10:23:39;;;;;;;3.13;1.40;;;21.70;45.40;;;;;;5038300;28;20075;-75
2022/06/02 10:26:20;;;;;;;2.20;1.08;;;21.70;45.20;;;;;;5074732;28;20036;-73
2022/06/02 10:29:24;;;;;;;2.50;1.13;;;21.70;45.20;;;;;;5052887;28;20393;-74
2022/06/02 10:32:22;;;;;;;3.72;0.98;;;21.70;45.30;;;;;;5069096;28;20064;-76
2022/06/02 10:35:17;;;;;;;2.13;0.85;;;21.70;45.30;;;;;;5069863;28;20129;-76
2022/06/02 10:38:00;;;;;;;2.00;0.98;;;21.80;44.70;;;;;;5052057;28;20059;-75
2022/06/02 10:40:55;;;;;;;2.60;1.40;;;21.90;45.00;;;;;;5064993;28;20040;-80
2022/06/02 10:44:02;;;;;;;2.00;0.93;;;22.00;45.00;;;;;;5066004;28;20056;-76
2022/06/02 10:47:02;;;;;;;2.05;0.90;;;22.00;44.10;;;;;;5047297;28;20098;-76
2022/06/02 10:49:44;;;;;;;3.38;0.98;;;22.00;44.90;;;;;;5068491;28;20054;-76
2022/06/02 10:52:47;;;;;;;2.08;0.93;;;22.10;44.50;;;;;;5068557;28;20521;-80
2022/06/02 10:55:47;;;;;;;1.63;0.68;;;22.10;44.40;;;;;;5066948;28;20095;-73
2022/06/02 10:58:39;;;;;;;4.18;0.90;;;22.10;44.20;;;;;;5064998;28;20071;-73
2022/06/02 11:01:31;;;;;;;3.22;0.90;;;22.10;44.30;;;;;;4991735;28;20058;-76
2022/06/02 11:04:34;;;;;;;1.73;0.70;;;22.10;44.00;;;;;;5065905;28;20129;-74
2022/06/02 11:07:51;;;;;;;1.40;0.88;;;22.10;43.40;;;;;;5064469;28;20044;-80
2022/06/02 11:10:26;;;;;;;1.08;0.60;;;22.10;43.40;;;;;;5036532;28;20138;-76
2022/06/02 11:13:29;;;;;;;1.63;0.70;;;22.10;43.40;;;;;;5066114;28;20036;-75
2022/06/02 11:16:27;;;;;;;2.22;0.70;;;22.10;42.50;;;;;;5067303;28;20544;-73
2022/06/02 11:19:35;;;;;;;1.42;0.70;;;22.20;42.60;;;;;;5069345;28;20381;-75
2022/06/02 11:22:46;;;;;;;0.50;0.40;;;22.20;42.60;;;;;;5067228;28;20064;-75
2022/06/02 11:25:42;;;;;;;1.25;0.50;;;22.30;42.70;;;;;;5019545;28;20050;-77
2022/06/02 11:28:54;;;;;;;1.30;0.50;;;22.30;42.70;;;;;;5067115;28;20549;-77
2022/06/02 11:31:49;;;;;;;0.80;0.57;;;22.30;42.40;;;;;;5070538;28;20051;-76
2022/06/02 11:34:34;;;;;;;2.13;0.60;;;22.40;42.40;;;;;;5063662;28;20051;-75
2022/06/02 11:37:28;;;;;;;0.90;0.40;;;22.40;42.30;;;;;;5071142;28;20040;-79
2022/06/02 11:40:29;;;;;;;1.45;0.40;;;22.40;42.20;;;;;;5067056;28;20126;-78
2022/06/02 11:43:04;;;;;;;2.40;0.50;;;22.30;42.50;;;;;;5048576;28;20159;-74
2022/06/02 11:46:06;;;;;;;0.90;0.40;;;22.30;42.50;;;;;;5051153;28;20072;-76
2022/06/02 11:48:55;;;;;;;1.20;0.60;;;22.40;42.40;;;;;;5053495;28;20106;-75
2022/06/02 11:51:57;;;;;;;6.18;3.63;;;22.40;42.50;;;;;;5068503;28;20095;-75
2022/06/02 11:54:52;;;;;;;2.58;1.40;;;22.50;42.10;;;;;;5044538;28;20500;-77
2022/06/02 11:57:37;;;;;;;4.00;1.73;;;22.50;42.10;;;;;;5067601;28;20054;-76
2022/06/02 12:00:25;;;;;;;1.92;1.10;;;22.60;41.60;;;;;;5064434;28;20332;-76
2022/06/02 12:03:22;;;;;;;1.42;0.70;;;22.60;41.40;;;;;;5066367;28;20063;-79
2022/06/02 12:06:26;;;;;;;2.38;0.80;;;22.60;41.70;;;;;;5070172;28;20045;-75
2022/06/02 12:09:33;;;;;;;1.00;0.60;;;22.60;41.30;;;;;;5068816;28;20040;-75
2022/06/02 12:12:36;;;;;;;0.70;0.40;;;22.60;40.90;;;;;;5049797;28;20937;-73
2022/06/02 12:15:26;;;;;;;1.08;0.55;;;22.60;39.70;;;;;;5050388;28;20080;-73
2022/06/02 12:18:08;;;;;;;0.60;0.40;;;22.60;40.60;;;;;;5066789;28;20045;-76
2022/06/02 12:20:52;;;;;;;1.58;0.47;;;22.60;40.70;;;;;;5067740;28;20056;-75
2022/06/02 12:23:32;;;;;;;1.60;0.45;;;22.70;38.90;;;;;;5070137;28;20114;-76
2022/06/02 12:26:06;;;;;;;0.80;0.60;;;22.60;40.80;;;;;;5067772;28;20047;-76
2022/06/02 12:28:53;;;;;;;0.93;0.50;;;22.60;41.20;;;;;;5051629;28;20049;-76
2022/06/02 12:31:41;;;;;;;1.50;0.47;;;22.60;41.50;;;;;;5069880;28;20040;-77
2022/06/02 12:34:36;;;;;;;1.05;0.50;;;22.60;41.40;;;;;;5053665;28;20115;-75
2022/06/02 12:37:22;;;;;;;1.05;0.30;;;22.60;41.40;;;;;;5055718;28;20113;-74
2022/06/02 12:40:07;;;;;;;0.77;0.40;;;22.60;40.80;;;;;;5068126;28;20040;-79
2022/06/02 12:42:57;;;;;;;0.75;0.38;;;22.70;40.00;;;;;;5076375;28;20048;-77
2022/06/02 12:45:47;;;;;;;0.70;0.40;;;22.70;39.60;;;;;;5078348;28;20040;-74
2022/06/02 12:48:54;;;;;;;0.65;0.35;;;22.70;40.40;;;;;;5072072;28;20381;-76
2022/06/02 12:52:06;;;;;;;0.32;0.30;;;22.70;40.50;;;;;;5074810;28;20040;-73
2022/06/02 12:55:08;;;;;;;1.77;0.40;;;22.60;40.60;;;;;;4985164;28;20103;-76
2022/06/02 12:58:23;;;;;;;1.50;0.60;;;22.70;39.80;;;;;;5049487;28;20472;-76
2022/06/02 13:01:16;;;;;;;1.42;0.60;;;22.70;40.30;;;;;;4970558;28;20540;-76
2022/06/02 13:04:34;;;;;;;1.80;0.90;;;22.70;39.80;;;;;;4959414;28;20624;-76
2022/06/02 13:07:34;;;;;;;6.83;2.70;;;22.60;40.50;;;;;;5070080;28;20037;-74
2022/06/02 13:10:21;;;;;;;3.97;1.65;;;22.60;40.10;;;;;;5069894;28;20471;-74
2022/06/02 13:13:42;;;;;;;8.88;3.00;;;22.60;40.50;;;;;;5072672;28;20118;-76
2022/06/02 13:16:42;;;;;;;8.82;4.53;;;22.60;40.20;;;;;;5044427;28;20139;-73
2022/06/02 13:19:20;;;;;;;;;;;22.70;38.00;;;;;;5071993;28;20131;-76
2022/06/02 13:22:16;;;;;;;5.68;1.83;;;22.70;39.10;;;;;;5069983;28;20439;-74
2022/06/02 13:25:07;;;;;;;6.53;2.30;;;22.70;39.00;;;;;;5067127;28;20058;-77
2022/06/02 13:28:04;;;;;;;4.53;1.83;;;22.70;37.70;;;;;;5057132;28;20705;-74
2022/06/02 13:31:10;;;;;;;4.47;1.45;;;22.60;39.00;;;;;;5069443;28;20043;-79
2022/06/02 13:34:18;;;;;;;5.07;1.77;;;22.60;38.50;;;;;;5069347;28;20518;-77
2022/06/02 13:37:11;;;;;;;6.13;2.60;;;22.60;39.70;;;;;;5080654;28;20045;-75
2022/06/02 13:40:20;;;;;;;5.72;2.20;;;22.60;39.40;;;;;;5055043;28;20179;-75
2022/06/02 13:43:27;;;;;;;4.32;1.88;;;22.60;39.70;;;;;;5065678;28;20090;-76
2022/06/02 13:46:08;;;;;;;4.22;1.73;;;22.60;39.90;;;;;;5079819;28;20040;-77
2022/06/02 13:49:14;;;;;;;5.18;2.15;;;22.60;39.30;;;;;;5061673;28;20051;-73
2022/06/02 13:52:28;;;;;;;5.10;2.38;;;22.60;40.00;;;;;;5045761;28;20063;-73
2022/06/02 13:58:39;;;;;;;4.55;1.85;;;22.60;39.40;;;;;;5079224;28;20393;-75
2022/06/02 14:01:25;;;;;;;2.30;1.17;;;22.70;39.30;;;;;;5052107;28;20514;-79
2022/06/02 14:04:18;;;;;;;2.85;1.10;;;22.70;39.10;;;;;;5060290;28;20060;-74
2022/06/02 14:06:51;;;;;;;5.00;1.05;;;22.70;39.50;;;;;;5057835;28;20114;-75
2022/06/02 14:09:43;;;;;;;3.13;1.20;;;22.70;39.10;;;;;;5076050;28;20032;-77
2022/06/02 14:12:45;;;;;;;2.58;1.08;;;22.70;39.70;;;;;;5060154;28;20045;-73
2022/06/02 14:15:31;;;;;;;2.90;0.95;;;22.70;39.60;;;;;;5077509;28;20043;-79
2022/06/02 14:18:29;;;;;;;2.35;1.10;;;22.70;37.70;;;;;;5058891;28;20079;-73
2022/06/02 14:21:06;;;;;;;2.17;0.70;;;22.70;38.90;;;;;;5079149;28;20161;-73
2022/06/02 14:23:53;;;;;;;2.92;1.00;;;22.70;38.80;;;;;;5058710;28;20569;-75
2022/06/02 14:26:33;;;;;;;1.85;0.85;;;22.70;39.60;;;;;;5060502;28;20135;-76
2022/06/02 14:29:10;;;;;;;1.90;0.70;;;22.70;39.60;;;;;;5058647;28;20497;-73
2022/06/02 14:31:52;;;;;;;1.35;0.60;;;22.70;39.20;;;;;;5043119;28;20048;-76
2022/06/02 14:34:29;;;;;;;2.17;0.88;;;22.70;39.50;;;;;;5077546;28;20110;-76
2022/06/02 14:37:04;;;;;;;1.85;0.90;;;22.60;39.80;;;;;;5080283;28;20389;-75